sensor_id;sensor_type;location;lat;lon;timestamp;P1;durP1;ratioP1;P2;durP2;ratioP2
36291;SDS011;22327;51.208;6.418;2023-03-11T00:01:22;15.18;;;5.10;;
36291;SDS011;22327;51.208;6.418;2023-03-11T00:03:48;13.73;;;4.47;;
36291;SDS011;22327;51.208;6.418;2023-03-11T00:06:14;18.95;;;6.28;;
36291;SDS011;22327;51.208;6.418;2023-03-11T00:08:40;15.02;;;5.25;;
36291;SDS011;22327;51.208;6.418;2023-03-11T00:11:06;23.13;;;7.63;;
36291;SDS011;22327;51.208;6.418;2023-03-11T00:13:32;3.75;;;1.42;;
36291;SDS011;22327;51.208;6.418;2023-03-11T00:15:59;12.57;;;5.32;;
36291;SDS011;22327;51.208;6.418;2023-03-11T00:18:25;14.00;;;5.72;;
36291;SDS011;22327;51.208;6.418;2023-03-11T00:20:54;19.38;;;7.07;;
36291;SDS011;22327;51.208;6.418;2023-03-11T00:23:21;16.15;;;7.32;;
36291;SDS011;22327;51.208;6.418;2023-03-11T00:25:47;16.80;;;4.57;;
36291;SDS011;22327;51.208;6.418;2023-03-11T00:28:13;9.95;;;3.63;;
36291;SDS011;22327;51.208;6.418;2023-03-11T00:30:39;5.28;;;1.83;;
36291;SDS011;22327;51.208;6.418;2023-03-11T00:33:06;14.18;;;5.22;;
36291;SDS011;22327;51.208;6.418;2023-03-11T00:35:34;14.45;;;6.03;;
36291;SDS011;22327;51.208;6.418;2023-03-11T00:38:01;12.82;;;4.63;;
36291;SDS011;22327;51.208;6.418;2023-03-11T00:40:29;10.38;;;3.55;;
36291;SDS011;22327;51.208;6.418;2023-03-11T00:42:56;11.00;;;2.92;;
36291;SDS011;22327;51.208;6.418;2023-03-11T00:45:23;15.57;;;4.88;;
36291;SDS011;22327;51.208;6.418;2023-03-11T00:47:49;9.10;;;1.98;;
36291;SDS011;22327;51.208;6.418;2023-03-11T00:50:17;11.20;;;4.93;;
36291;SDS011;22327;51.208;6.418;2023-03-11T00:52:48;12.30;;;3.47;;
36291;SDS011;22327;51.208;6.418;2023-03-11T00:55:15;14.18;;;4.70;;
36291;SDS011;22327;51.208;6.418;2023-03-11T00:57:44;8.95;;;3.22;;
36291;SDS011;22327;51.208;6.418;2023-03-11T01:00:13;8.45;;;2.45;;
36291;SDS011;22327;51.208;6.418;2023-03-11T01:02:40;9.60;;;2.70;;
36291;SDS011;22327;51.208;6.418;2023-03-11T01:05:05;11.38;;;2.83;;
36291;SDS011;22327;51.208;6.418;2023-03-11T01:07:32;13.70;;;5.05;;
36291;SDS011;22327;51.208;6.418;2023-03-11T01:09:58;8.50;;;2.42;;
36291;SDS011;22327;51.208;6.418;2023-03-11T01:12:24;12.80;;;3.88;;
36291;SDS011;22327;51.208;6.418;2023-03-11T01:14:49;9.40;;;2.88;;
36291;SDS011;22327;51.208;6.418;2023-03-11T01:17:15;14.70;;;3.85;;
36291;SDS011;22327;51.208;6.418;2023-03-11T01:19:40;12.65;;;3.10;;
36291;SDS011;22327;51.208;6.418;2023-03-11T01:22:06;17.08;;;4.35;;
36291;SDS011;22327;51.208;6.418;2023-03-11T01:24:32;8.48;;;1.63;;
36291;SDS011;22327;51.208;6.418;2023-03-11T01:26:57;8.15;;;3.08;;
36291;SDS011;22327;51.208;6.418;2023-03-11T01:29:23;14.50;;;5.95;;
36291;SDS011;22327;51.208;6.418;2023-03-11T01:31:48;8.65;;;3.40;;
36291;SDS011;22327;51.208;6.418;2023-03-11T01:34:14;14.80;;;2.58;;
36291;SDS011;22327;51.208;6.418;2023-03-11T01:36:39;6.13;;;2.17;;
36291;SDS011;22327;51.208;6.418;2023-03-11T01:39:05;7.88;;;2.85;;
36291;SDS011;22327;51.208;6.418;2023-03-11T01:41:30;6.22;;;2.15;;
36291;SDS011;22327;51.208;6.418;2023-03-11T01:43:56;8.55;;;3.13;;
36291;SDS011;22327;51.208;6.418;2023-03-11T01:46:26;6.15;;;2.25;;
36291;SDS011;22327;51.208;6.418;2023-03-11T01:48:55;7.53;;;1.95;;
36291;SDS011;22327;51.208;6.418;2023-03-11T01:51:24;10.25;;;2.25;;
36291;SDS011;22327;51.208;6.418;2023-03-11T01:53:53;16.05;;;3.80;;
36291;SDS011;22327;51.208;6.418;2023-03-11T01:56:19;12.15;;;3.45;;
36291;SDS011;22327;51.208;6.418;2023-03-11T01:58:45;10.27;;;2.72;;
36291;SDS011;22327;51.208;6.418;2023-03-11T02:01:16;7.20;;;1.60;;
36291;SDS011;22327;51.208;6.418;2023-03-11T02:03:43;11.60;;;2.80;;
36291;SDS011;22327;51.208;6.418;2023-03-11T02:06:10;8.90;;;2.63;;
36291;SDS011;22327;51.208;6.418;2023-03-11T02:08:38;5.32;;;2.13;;
36291;SDS011;22327;51.208;6.418;2023-03-11T02:14:27;12.02;;;3.95;;
36291;SDS011;22327;51.208;6.418;2023-03-11T02:16:54;8.20;;;1.55;;
36291;SDS011;22327;51.208;6.418;2023-03-11T02:22:05;13.50;;;4.00;;
36291;SDS011;22327;51.208;6.418;2023-03-11T02:24:39;16.58;;;5.32;;
36291;SDS011;22327;51.208;6.418;2023-03-11T02:27:11;9.70;;;2.17;;
36291;SDS011;22327;51.208;6.418;2023-03-11T02:29:38;13.85;;;4.53;;
36291;SDS011;22327;51.208;6.418;2023-03-11T02:32:06;7.80;;;3.33;;
36291;SDS011;22327;51.208;6.418;2023-03-11T02:34:34;11.45;;;4.15;;
36291;SDS011;22327;51.208;6.418;2023-03-11T02:37:03;13.13;;;4.63;;
36291;SDS011;22327;51.208;6.418;2023-03-11T02:41:58;7.10;;;2.03;;
36291;SDS011;22327;51.208;6.418;2023-03-11T02:44:26;8.45;;;2.47;;
36291;SDS011;22327;51.208;6.418;2023-03-11T02:46:52;9.23;;;2.10;;
36291;SDS011;22327;51.208;6.418;2023-03-11T02:49:18;9.60;;;2.90;;
36291;SDS011;22327;51.208;6.418;2023-03-11T02:51:45;5.75;;;1.73;;
36291;SDS011;22327;51.208;6.418;2023-03-11T02:54:11;8.15;;;3.38;;
36291;SDS011;22327;51.208;6.418;2023-03-11T02:56:36;11.52;;;2.70;;
36291;SDS011;22327;51.208;6.418;2023-03-11T02:59:02;8.75;;;3.03;;
36291;SDS011;22327;51.208;6.418;2023-03-11T03:01:28;9.00;;;2.38;;
36291;SDS011;22327;51.208;6.418;2023-03-11T03:03:54;5.63;;;2.42;;
36291;SDS011;22327;51.208;6.418;2023-03-11T03:06:20;20.98;;;7.93;;
36291;SDS011;22327;51.208;6.418;2023-03-11T03:08:46;8.20;;;2.20;;
36291;SDS011;22327;51.208;6.418;2023-03-11T03:11:11;12.75;;;2.88;;
36291;SDS011;22327;51.208;6.418;2023-03-11T03:13:37;7.82;;;2.47;;
36291;SDS011;22327;51.208;6.418;2023-03-11T03:16:02;9.40;;;4.55;;
36291;SDS011;22327;51.208;6.418;2023-03-11T03:18:28;7.70;;;1.92;;
36291;SDS011;22327;51.208;6.418;2023-03-11T03:20:54;8.80;;;3.28;;
36291;SDS011;22327;51.208;6.418;2023-03-11T03:23:20;7.25;;;2.55;;
36291;SDS011;22327;51.208;6.418;2023-03-11T03:25:45;12.13;;;3.42;;
36291;SDS011;22327;51.208;6.418;2023-03-11T03:28:11;10.48;;;3.13;;
36291;SDS011;22327;51.208;6.418;2023-03-11T03:30:37;12.40;;;4.03;;
36291;SDS011;22327;51.208;6.418;2023-03-11T03:33:04;9.73;;;3.67;;
36291;SDS011;22327;51.208;6.418;2023-03-11T03:35:30;13.45;;;4.47;;
36291;SDS011;22327;51.208;6.418;2023-03-11T03:37:56;14.75;;;4.43;;
36291;SDS011;22327;51.208;6.418;2023-03-11T03:40:23;11.60;;;3.63;;
36291;SDS011;22327;51.208;6.418;2023-03-11T03:42:48;7.20;;;2.45;;
36291;SDS011;22327;51.208;6.418;2023-03-11T03:45:14;11.20;;;3.00;;
36291;SDS011;22327;51.208;6.418;2023-03-11T03:47:39;10.68;;;4.32;;
36291;SDS011;22327;51.208;6.418;2023-03-11T03:50:06;10.00;;;3.67;;
36291;SDS011;22327;51.208;6.418;2023-03-11T03:52:34;7.90;;;2.28;;
36291;SDS011;22327;51.208;6.418;2023-03-11T03:55:00;11.07;;;3.17;;
36291;SDS011;22327;51.208;6.418;2023-03-11T03:57:27;8.73;;;2.40;;
36291;SDS011;22327;51.208;6.418;2023-03-11T03:59:53;7.63;;;2.85;;
36291;SDS011;22327;51.208;6.418;2023-03-11T04:02:18;7.53;;;1.73;;
36291;SDS011;22327;51.208;6.418;2023-03-11T04:04:44;8.27;;;3.78;;
36291;SDS011;22327;51.208;6.418;2023-03-11T04:07:09;12.38;;;3.95;;
36291;SDS011;22327;51.208;6.418;2023-03-11T04:09:37;16.63;;;5.95;;
36291;SDS011;22327;51.208;6.418;2023-03-11T04:12:04;9.90;;;4.35;;
36291;SDS011;22327;51.208;6.418;2023-03-11T04:14:29;6.40;;;1.45;;
36291;SDS011;22327;51.208;6.418;2023-03-11T04:16:55;5.53;;;1.90;;
36291;SDS011;22327;51.208;6.418;2023-03-11T04:19:21;8.15;;;2.50;;
36291;SDS011;22327;51.208;6.418;2023-03-11T04:21:47;5.43;;;1.52;;
36291;SDS011;22327;51.208;6.418;2023-03-11T04:24:15;14.27;;;4.05;;
36291;SDS011;22327;51.208;6.418;2023-03-11T04:26:42;11.60;;;3.78;;
36291;SDS011;22327;51.208;6.418;2023-03-11T04:29:07;9.15;;;1.73;;
36291;SDS011;22327;51.208;6.418;2023-03-11T04:31:33;10.35;;;2.72;;
36291;SDS011;22327;51.208;6.418;2023-03-11T04:33:58;8.25;;;2.00;;
36291;SDS011;22327;51.208;6.418;2023-03-11T04:36:24;6.55;;;1.73;;
36291;SDS011;22327;51.208;6.418;2023-03-11T04:38:49;7.18;;;2.58;;
36291;SDS011;22327;51.208;6.418;2023-03-11T04:41:15;4.15;;;1.50;;
36291;SDS011;22327;51.208;6.418;2023-03-11T04:43:40;7.53;;;2.55;;
36291;SDS011;22327;51.208;6.418;2023-03-11T04:46:06;6.57;;;1.60;;
36291;SDS011;22327;51.208;6.418;2023-03-11T04:48:31;8.68;;;1.88;;
36291;SDS011;22327;51.208;6.418;2023-03-11T04:50:57;9.57;;;1.85;;
36291;SDS011;22327;51.208;6.418;2023-03-11T04:53:22;9.07;;;2.70;;
36291;SDS011;22327;51.208;6.418;2023-03-11T04:55:48;4.78;;;1.60;;
36291;SDS011;22327;51.208;6.418;2023-03-11T04:58:14;8.93;;;2.03;;
36291;SDS011;22327;51.208;6.418;2023-03-11T05:00:40;10.82;;;2.67;;
36291;SDS011;22327;51.208;6.418;2023-03-11T05:03:05;8.30;;;1.85;;
36291;SDS011;22327;51.208;6.418;2023-03-11T05:05:31;8.32;;;3.10;;
36291;SDS011;22327;51.208;6.418;2023-03-11T05:07:56;8.07;;;1.67;;
36291;SDS011;22327;51.208;6.418;2023-03-11T05:10:22;5.10;;;1.70;;
36291;SDS011;22327;51.208;6.418;2023-03-11T05:12:50;4.20;;;1.52;;
36291;SDS011;22327;51.208;6.418;2023-03-11T05:15:17;8.13;;;1.90;;
36291;SDS011;22327;51.208;6.418;2023-03-11T05:17:42;8.77;;;2.90;;
36291;SDS011;22327;51.208;6.418;2023-03-11T05:20:09;3.92;;;1.50;;
36291;SDS011;22327;51.208;6.418;2023-03-11T05:22:35;6.88;;;1.98;;
36291;SDS011;22327;51.208;6.418;2023-03-11T05:25:01;9.05;;;3.17;;
36291;SDS011;22327;51.208;6.418;2023-03-11T05:27:27;7.30;;;1.88;;
36291;SDS011;22327;51.208;6.418;2023-03-11T05:29:52;4.25;;;1.80;;
36291;SDS011;22327;51.208;6.418;2023-03-11T05:32:18;6.97;;;2.28;;
36291;SDS011;22327;51.208;6.418;2023-03-11T05:34:44;9.63;;;1.75;;
36291;SDS011;22327;51.208;6.418;2023-03-11T05:37:10;10.55;;;2.47;;
36291;SDS011;22327;51.208;6.418;2023-03-11T05:39:35;6.85;;;2.10;;
36291;SDS011;22327;51.208;6.418;2023-03-11T05:42:02;5.75;;;2.28;;
36291;SDS011;22327;51.208;6.418;2023-03-11T05:44:28;6.72;;;2.10;;
36291;SDS011;22327;51.208;6.418;2023-03-11T05:46:54;9.32;;;3.03;;
36291;SDS011;22327;51.208;6.418;2023-03-11T05:49:19;9.93;;;2.42;;
36291;SDS011;22327;51.208;6.418;2023-03-11T05:51:45;7.18;;;2.80;;
36291;SDS011;22327;51.208;6.418;2023-03-11T05:54:11;5.78;;;2.42;;
36291;SDS011;22327;51.208;6.418;2023-03-11T05:56:39;6.43;;;2.15;;
36291;SDS011;22327;51.208;6.418;2023-03-11T05:59:06;9.13;;;2.50;;
36291;SDS011;22327;51.208;6.418;2023-03-11T06:01:32;8.32;;;2.97;;
36291;SDS011;22327;51.208;6.418;2023-03-11T06:03:58;5.82;;;2.30;;
36291;SDS011;22327;51.208;6.418;2023-03-11T06:06:24;8.20;;;2.05;;
36291;SDS011;22327;51.208;6.418;2023-03-11T06:08:49;7.95;;;2.47;;
36291;SDS011;22327;51.208;6.418;2023-03-11T06:11:15;7.85;;;2.28;;
36291;SDS011;22327;51.208;6.418;2023-03-11T06:13:41;8.95;;;2.45;;
36291;SDS011;22327;51.208;6.418;2023-03-11T06:16:07;8.95;;;3.35;;
36291;SDS011;22327;51.208;6.418;2023-03-11T06:18:33;10.48;;;2.78;;
36291;SDS011;22327;51.208;6.418;2023-03-11T06:20:59;3.58;;;2.15;;
36291;SDS011;22327;51.208;6.418;2023-03-11T06:23:26;11.88;;;2.50;;
36291;SDS011;22327;51.208;6.418;2023-03-11T06:28:21;6.28;;;2.00;;
36291;SDS011;22327;51.208;6.418;2023-03-11T06:30:47;6.97;;;1.90;;
36291;SDS011;22327;51.208;6.418;2023-03-11T06:33:13;6.38;;;2.40;;
36291;SDS011;22327;51.208;6.418;2023-03-11T06:35:39;7.05;;;2.58;;
36291;SDS011;22327;51.208;6.418;2023-03-11T06:38:05;10.32;;;2.90;;
36291;SDS011;22327;51.208;6.418;2023-03-11T06:40:30;9.88;;;3.85;;
36291;SDS011;22327;51.208;6.418;2023-03-11T06:42:56;6.53;;;2.55;;
36291;SDS011;22327;51.208;6.418;2023-03-11T06:45:22;6.68;;;2.10;;
36291;SDS011;22327;51.208;6.418;2023-03-11T06:47:47;9.20;;;2.63;;
36291;SDS011;22327;51.208;6.418;2023-03-11T06:50:13;13.07;;;2.83;;
36291;SDS011;22327;51.208;6.418;2023-03-11T06:52:39;6.22;;;2.25;;
36291;SDS011;22327;51.208;6.418;2023-03-11T06:55:04;4.82;;;2.28;;
36291;SDS011;22327;51.208;6.418;2023-03-11T06:57:31;7.40;;;2.30;;
36291;SDS011;22327;51.208;6.418;2023-03-11T06:59:58;8.05;;;2.80;;
36291;SDS011;22327;51.208;6.418;2023-03-11T07:02:23;6.78;;;2.70;;
36291;SDS011;22327;51.208;6.418;2023-03-11T07:04:49;5.43;;;2.25;;
36291;SDS011;22327;51.208;6.418;2023-03-11T07:07:14;6.05;;;1.88;;
36291;SDS011;22327;51.208;6.418;2023-03-11T07:09:40;8.45;;;2.65;;
36291;SDS011;22327;51.208;6.418;2023-03-11T07:12:05;5.40;;;2.30;;
36291;SDS011;22327;51.208;6.418;2023-03-11T07:14:31;6.97;;;2.45;;
36291;SDS011;22327;51.208;6.418;2023-03-11T07:16:57;5.25;;;2.42;;
36291;SDS011;22327;51.208;6.418;2023-03-11T07:19:22;6.70;;;2.63;;
36291;SDS011;22327;51.208;6.418;2023-03-11T07:21:48;10.10;;;2.17;;
36291;SDS011;22327;51.208;6.418;2023-03-11T07:24:13;4.53;;;2.25;;
36291;SDS011;22327;51.208;6.418;2023-03-11T07:26:39;5.90;;;2.78;;
36291;SDS011;22327;51.208;6.418;2023-03-11T07:29:06;6.10;;;2.95;;
36291;SDS011;22327;51.208;6.418;2023-03-11T07:31:32;8.88;;;2.60;;
36291;SDS011;22327;51.208;6.418;2023-03-11T07:34:00;9.73;;;2.75;;
36291;SDS011;22327;51.208;6.418;2023-03-11T07:36:27;6.93;;;2.35;;
36291;SDS011;22327;51.208;6.418;2023-03-11T07:38:57;6.53;;;2.72;;
36291;SDS011;22327;51.208;6.418;2023-03-11T07:41:24;6.15;;;2.58;;
36291;SDS011;22327;51.208;6.418;2023-03-11T07:43:52;8.77;;;2.75;;
36291;SDS011;22327;51.208;6.418;2023-03-11T07:46:20;9.43;;;2.17;;
36291;SDS011;22327;51.208;6.418;2023-03-11T07:48:47;7.18;;;2.28;;
36291;SDS011;22327;51.208;6.418;2023-03-11T07:53:47;5.07;;;2.40;;
36291;SDS011;22327;51.208;6.418;2023-03-11T07:56:14;9.98;;;3.20;;
36291;SDS011;22327;51.208;6.418;2023-03-11T07:58:41;5.05;;;2.00;;
36291;SDS011;22327;51.208;6.418;2023-03-11T08:01:08;8.38;;;2.40;;
36291;SDS011;22327;51.208;6.418;2023-03-11T08:03:40;6.05;;;2.00;;
36291;SDS011;22327;51.208;6.418;2023-03-11T08:06:13;6.18;;;2.17;;
36291;SDS011;22327;51.208;6.418;2023-03-11T08:08:40;6.32;;;2.13;;
36291;SDS011;22327;51.208;6.418;2023-03-11T08:11:07;5.85;;;1.73;;
36291;SDS011;22327;51.208;6.418;2023-03-11T08:13:33;5.95;;;2.50;;
36291;SDS011;22327;51.208;6.418;2023-03-11T08:16:01;4.13;;;1.77;;
36291;SDS011;22327;51.208;6.418;2023-03-11T08:18:28;5.68;;;1.70;;
36291;SDS011;22327;51.208;6.418;2023-03-11T08:20:54;4.82;;;1.85;;
36291;SDS011;22327;51.208;6.418;2023-03-11T08:23:20;5.20;;;1.80;;
36291;SDS011;22327;51.208;6.418;2023-03-11T08:25:46;3.85;;;1.83;;
36291;SDS011;22327;51.208;6.418;2023-03-11T08:28:11;5.93;;;2.08;;
36291;SDS011;22327;51.208;6.418;2023-03-11T08:30:37;3.28;;;2.28;;
36291;SDS011;22327;51.208;6.418;2023-03-11T08:33:03;5.72;;;2.00;;
36291;SDS011;22327;51.208;6.418;2023-03-11T08:35:29;7.57;;;2.28;;
36291;SDS011;22327;51.208;6.418;2023-03-11T08:37:54;7.38;;;1.63;;
36291;SDS011;22327;51.208;6.418;2023-03-11T08:40:20;4.15;;;1.63;;
36291;SDS011;22327;51.208;6.418;2023-03-11T08:42:46;6.05;;;2.90;;
36291;SDS011;22327;51.208;6.418;2023-03-11T08:45:11;9.77;;;3.75;;
36291;SDS011;22327;51.208;6.418;2023-03-11T08:47:37;3.70;;;1.90;;
36291;SDS011;22327;51.208;6.418;2023-03-11T08:50:04;9.52;;;1.95;;
36291;SDS011;22327;51.208;6.418;2023-03-11T08:52:33;4.05;;;1.77;;
36291;SDS011;22327;51.208;6.418;2023-03-11T08:54:59;2.90;;;1.55;;
36291;SDS011;22327;51.208;6.418;2023-03-11T08:57:24;4.43;;;1.95;;
36291;SDS011;22327;51.208;6.418;2023-03-11T08:59:50;3.05;;;1.00;;
36291;SDS011;22327;51.208;6.418;2023-03-11T09:02:15;5.20;;;1.40;;
36291;SDS011;22327;51.208;6.418;2023-03-11T09:04:41;3.13;;;1.38;;
36291;SDS011;22327;51.208;6.418;2023-03-11T09:07:08;4.65;;;1.10;;
36291;SDS011;22327;51.208;6.418;2023-03-11T09:09:35;3.42;;;1.20;;
36291;SDS011;22327;51.208;6.418;2023-03-11T09:12:00;4.30;;;1.10;;
36291;SDS011;22327;51.208;6.418;2023-03-11T09:14:26;2.40;;;0.90;;
36291;SDS011;22327;51.208;6.418;2023-03-11T09:16:51;3.17;;;0.98;;
36291;SDS011;22327;51.208;6.418;2023-03-11T09:19:17;4.20;;;0.93;;
36291;SDS011;22327;51.208;6.418;2023-03-11T09:21:42;3.40;;;1.30;;
36291;SDS011;22327;51.208;6.418;2023-03-11T09:24:08;3.92;;;0.93;;
36291;SDS011;22327;51.208;6.418;2023-03-11T09:26:33;4.25;;;1.02;;
36291;SDS011;22327;51.208;6.418;2023-03-11T09:29:00;3.35;;;0.88;;
36291;SDS011;22327;51.208;6.418;2023-03-11T09:31:26;2.67;;;0.80;;
36291;SDS011;22327;51.208;6.418;2023-03-11T09:33:51;2.88;;;1.15;;
36291;SDS011;22327;51.208;6.418;2023-03-11T09:36:18;2.60;;;1.50;;
36291;SDS011;22327;51.208;6.418;2023-03-11T09:38:45;5.57;;;0.93;;
36291;SDS011;22327;51.208;6.418;2023-03-11T09:41:22;4.13;;;0.63;;
36291;SDS011;22327;51.208;6.418;2023-03-11T09:49:43;4.47;;;0.80;;
36291;SDS011;22327;51.208;6.418;2023-03-11T09:52:39;2.40;;;0.68;;
36291;SDS011;22327;51.208;6.418;2023-03-11T09:55:38;1.38;;;0.30;;
36291;SDS011;22327;51.208;6.418;2023-03-11T09:58:12;2.55;;;0.45;;
36291;SDS011;22327;51.208;6.418;2023-03-11T10:00:56;3.03;;;0.52;;
36291;SDS011;22327;51.208;6.418;2023-03-11T10:03:26;2.65;;;0.40;;
36291;SDS011;22327;51.208;6.418;2023-03-11T10:05:58;3.50;;;0.55;;
36291;SDS011;22327;51.208;6.418;2023-03-11T10:19:55;3.15;;;0.70;;
36291;SDS011;22327;51.208;6.418;2023-03-11T10:28:17;2.63;;;0.60;;
36291;SDS011;22327;51.208;6.418;2023-03-11T10:30:49;2.38;;;0.50;;
36291;SDS011;22327;51.208;6.418;2023-03-11T10:33:20;5.65;;;1.15;;
36291;SDS011;22327;51.208;6.418;2023-03-11T10:35:54;1.83;;;0.77;;
36291;SDS011;22327;51.208;6.418;2023-03-11T10:38:23;1.60;;;0.60;;
36291;SDS011;22327;51.208;6.418;2023-03-11T10:40:54;2.17;;;0.50;;
36291;SDS011;22327;51.208;6.418;2023-03-11T10:43:30;1.48;;;0.43;;
36291;SDS011;22327;51.208;6.418;2023-03-11T10:46:14;3.38;;;0.70;;
36291;SDS011;22327;51.208;6.418;2023-03-11T10:48:44;4.43;;;1.35;;
36291;SDS011;22327;51.208;6.418;2023-03-11T10:51:16;2.97;;;1.00;;
36291;SDS011;22327;51.208;6.418;2023-03-11T10:53:51;4.22;;;0.60;;
36291;SDS011;22327;51.208;6.418;2023-03-11T10:58:52;3.33;;;0.60;;
36291;SDS011;22327;51.208;6.418;2023-03-11T11:01:19;2.00;;;0.57;;
36291;SDS011;22327;51.208;6.418;2023-03-11T11:03:47;3.15;;;0.40;;
36291;SDS011;22327;51.208;6.418;2023-03-11T11:06:21;1.98;;;0.45;;
36291;SDS011;22327;51.208;6.418;2023-03-11T11:09:04;4.10;;;0.85;;
36291;SDS011;22327;51.208;6.418;2023-03-11T11:14:47;1.35;;;0.40;;
36291;SDS011;22327;51.208;6.418;2023-03-11T11:17:23;1.70;;;0.60;;
36291;SDS011;22327;51.208;6.418;2023-03-11T11:19:52;2.53;;;0.60;;
36291;SDS011;22327;51.208;6.418;2023-03-11T11:22:20;2.53;;;0.50;;
36291;SDS011;22327;51.208;6.418;2023-03-11T11:24:48;3.30;;;0.60;;
36291;SDS011;22327;51.208;6.418;2023-03-11T11:27:24;2.05;;;0.50;;
36291;SDS011;22327;51.208;6.418;2023-03-11T11:32:32;3.15;;;0.73;;
36291;SDS011;22327;51.208;6.418;2023-03-11T11:35:02;2.10;;;0.60;;
36291;SDS011;22327;51.208;6.418;2023-03-11T11:37:36;2.55;;;0.50;;
36291;SDS011;22327;51.208;6.418;2023-03-11T11:40:06;4.03;;;0.80;;
36291;SDS011;22327;51.208;6.418;2023-03-11T11:42:43;4.13;;;0.77;;
36291;SDS011;22327;51.208;6.418;2023-03-11T11:45:14;2.35;;;0.60;;
36291;SDS011;22327;51.208;6.418;2023-03-11T11:47:47;5.65;;;1.70;;
36291;SDS011;22327;51.208;6.418;2023-03-11T11:50:31;4.55;;;0.85;;
36291;SDS011;22327;51.208;6.418;2023-03-11T11:53:11;2.30;;;0.57;;
36291;SDS011;22327;51.208;6.418;2023-03-11T11:55:43;2.80;;;0.60;;
36291;SDS011;22327;51.208;6.418;2023-03-11T11:58:12;0.93;;;0.60;;
36291;SDS011;22327;51.208;6.418;2023-03-11T12:06:33;1.55;;;0.75;;
36291;SDS011;22327;51.208;6.418;2023-03-11T12:09:29;2.33;;;0.82;;
36291;SDS011;22327;51.208;6.418;2023-03-11T12:17:41;2.75;;;0.60;;
36291;SDS011;22327;51.208;6.418;2023-03-11T12:20:14;1.60;;;0.50;;
36291;SDS011;22327;51.208;6.418;2023-03-11T12:25:51;2.45;;;0.60;;
36291;SDS011;22327;51.208;6.418;2023-03-11T12:31:04;1.73;;;0.70;;
36291;SDS011;22327;51.208;6.418;2023-03-11T12:38:49;1.02;;;0.50;;
36291;SDS011;22327;51.208;6.418;2023-03-11T12:46:17;3.65;;;0.90;;
36291;SDS011;22327;51.208;6.418;2023-03-11T12:48:44;1.42;;;0.50;;
36291;SDS011;22327;51.208;6.418;2023-03-11T12:51:36;2.70;;;0.70;;
36291;SDS011;22327;51.208;6.418;2023-03-11T12:54:27;1.73;;;0.68;;
36291;SDS011;22327;51.208;6.418;2023-03-11T12:56:58;3.85;;;0.90;;
36291;SDS011;22327;51.208;6.418;2023-03-11T13:07:55;2.58;;;0.60;;
36291;SDS011;22327;51.208;6.418;2023-03-11T13:10:42;4.05;;;1.15;;
36291;SDS011;22327;51.208;6.418;2023-03-11T13:18:41;2.80;;;0.70;;
36291;SDS011;22327;51.208;6.418;2023-03-11T13:23:52;1.35;;;0.70;;
36291;SDS011;22327;51.208;6.418;2023-03-11T13:32:52;2.80;;;1.10;;
36291;SDS011;22327;51.208;6.418;2023-03-11T13:41:16;2.03;;;0.70;;
36291;SDS011;22327;51.208;6.418;2023-03-11T13:43:51;3.03;;;0.65;;
36291;SDS011;22327;51.208;6.418;2023-03-11T13:46:23;1.35;;;0.47;;
36291;SDS011;22327;51.208;6.418;2023-03-11T13:49:04;2.00;;;0.68;;
36291;SDS011;22327;51.208;6.418;2023-03-11T13:51:39;1.08;;;0.65;;
36291;SDS011;22327;51.208;6.418;2023-03-11T13:56:47;3.05;;;0.70;;
36291;SDS011;22327;51.208;6.418;2023-03-11T14:01:53;1.23;;;0.50;;
36291;SDS011;22327;51.208;6.418;2023-03-11T14:04:38;4.13;;;0.90;;
36291;SDS011;22327;51.208;6.418;2023-03-11T14:07:39;1.75;;;0.73;;
36291;SDS011;22327;51.208;6.418;2023-03-11T14:12:43;3.38;;;0.95;;
36291;SDS011;22327;51.208;6.418;2023-03-11T14:15:13;2.10;;;0.43;;
36291;SDS011;22327;51.208;6.418;2023-03-11T14:17:42;3.75;;;1.10;;
36291;SDS011;22327;51.208;6.418;2023-03-11T14:22:39;2.30;;;0.70;;
36291;SDS011;22327;51.208;6.418;2023-03-11T14:25:08;2.78;;;0.80;;
36291;SDS011;22327;51.208;6.418;2023-03-11T14:27:36;2.22;;;0.55;;
36291;SDS011;22327;51.208;6.418;2023-03-11T14:30:03;1.42;;;0.70;;
36291;SDS011;22327;51.208;6.418;2023-03-11T14:32:31;5.07;;;1.20;;
36291;SDS011;22327;51.208;6.418;2023-03-11T14:34:57;3.80;;;0.60;;
36291;SDS011;22327;51.208;6.418;2023-03-11T14:37:31;4.03;;;1.10;;
36291;SDS011;22327;51.208;6.418;2023-03-11T14:39:58;1.25;;;0.60;;
36291;SDS011;22327;51.208;6.418;2023-03-11T14:42:34;3.17;;;0.80;;
36291;SDS011;22327;51.208;6.418;2023-03-11T14:45:13;2.63;;;0.80;;
36291;SDS011;22327;51.208;6.418;2023-03-11T14:47:48;2.30;;;0.73;;
36291;SDS011;22327;51.208;6.418;2023-03-11T14:50:18;1.58;;;0.52;;
36291;SDS011;22327;51.208;6.418;2023-03-11T14:52:50;1.88;;;0.65;;
36291;SDS011;22327;51.208;6.418;2023-03-11T14:55:30;2.20;;;0.70;;
36291;SDS011;22327;51.208;6.418;2023-03-11T15:01:15;2.38;;;0.60;;
36291;SDS011;22327;51.208;6.418;2023-03-11T15:03:51;2.08;;;0.47;;
36291;SDS011;22327;51.208;6.418;2023-03-11T15:06:22;0.80;;;0.50;;
36291;SDS011;22327;51.208;6.418;2023-03-11T15:08:54;2.13;;;0.70;;
36291;SDS011;22327;51.208;6.418;2023-03-11T15:11:24;3.97;;;0.60;;
36291;SDS011;22327;51.208;6.418;2023-03-11T15:13:52;2.88;;;0.60;;
36291;SDS011;22327;51.208;6.418;2023-03-11T15:16:24;1.77;;;0.68;;
36291;SDS011;22327;51.208;6.418;2023-03-11T15:18:53;2.47;;;0.60;;
36291;SDS011;22327;51.208;6.418;2023-03-11T15:21:20;3.15;;;0.80;;
36291;SDS011;22327;51.208;6.418;2023-03-11T15:23:49;2.38;;;0.70;;
36291;SDS011;22327;51.208;6.418;2023-03-11T15:26:20;4.20;;;0.70;;
36291;SDS011;22327;51.208;6.418;2023-03-11T15:28:51;3.13;;;0.80;;
36291;SDS011;22327;51.208;6.418;2023-03-11T15:33:47;3.67;;;0.80;;
36291;SDS011;22327;51.208;6.418;2023-03-11T15:36:30;2.08;;;0.65;;
36291;SDS011;22327;51.208;6.418;2023-03-11T15:39:45;2.75;;;0.60;;
36291;SDS011;22327;51.208;6.418;2023-03-11T15:42:01;1.08;;;0.63;;
36291;SDS011;22327;51.208;6.418;2023-03-11T15:44:42;1.20;;;0.65;;
36291;SDS011;22327;51.208;6.418;2023-03-11T15:47:20;3.75;;;0.82;;
36291;SDS011;22327;51.208;6.418;2023-03-11T15:49:47;1.63;;;0.70;;
36291;SDS011;22327;51.208;6.418;2023-03-11T15:52:13;3.03;;;0.80;;
36291;SDS011;22327;51.208;6.418;2023-03-11T15:54:39;1.50;;;0.77;;
36291;SDS011;22327;51.208;6.418;2023-03-11T15:57:06;4.03;;;0.90;;
36291;SDS011;22327;51.208;6.418;2023-03-11T15:59:33;1.95;;;0.70;;
36291;SDS011;22327;51.208;6.418;2023-03-11T16:01:59;1.48;;;1.05;;
36291;SDS011;22327;51.208;6.418;2023-03-11T16:04:25;4.47;;;0.77;;
36291;SDS011;22327;51.208;6.418;2023-03-11T16:06:51;2.58;;;0.80;;
36291;SDS011;22327;51.208;6.418;2023-03-11T16:09:17;2.97;;;0.75;;
36291;SDS011;22327;51.208;6.418;2023-03-11T16:11:43;2.08;;;0.90;;
36291;SDS011;22327;51.208;6.418;2023-03-11T16:14:14;0.95;;;0.50;;
36291;SDS011;22327;51.208;6.418;2023-03-11T16:16:41;2.03;;;0.80;;
36291;SDS011;22327;51.208;6.418;2023-03-11T16:19:07;1.20;;;0.98;;
36291;SDS011;22327;51.208;6.418;2023-03-11T16:21:38;1.67;;;0.80;;
36291;SDS011;22327;51.208;6.418;2023-03-11T16:24:05;1.70;;;0.80;;
36291;SDS011;22327;51.208;6.418;2023-03-11T16:26:32;4.03;;;1.08;;
36291;SDS011;22327;51.208;6.418;2023-03-11T16:28:59;2.80;;;0.80;;
36291;SDS011;22327;51.208;6.418;2023-03-11T16:31:25;2.72;;;0.90;;
36291;SDS011;22327;51.208;6.418;2023-03-11T16:33:52;3.03;;;0.75;;
36291;SDS011;22327;51.208;6.418;2023-03-11T16:36:17;3.15;;;0.77;;
36291;SDS011;22327;51.208;6.418;2023-03-11T16:38:46;3.63;;;0.70;;
36291;SDS011;22327;51.208;6.418;2023-03-11T16:41:14;2.85;;;1.00;;
36291;SDS011;22327;51.208;6.418;2023-03-11T16:43:40;1.35;;;0.75;;
36291;SDS011;22327;51.208;6.418;2023-03-11T16:46:06;2.97;;;0.82;;
36291;SDS011;22327;51.208;6.418;2023-03-11T16:48:32;2.13;;;1.00;;
36291;SDS011;22327;51.208;6.418;2023-03-11T16:50:57;3.92;;;2.08;;